Time;durP1;ratioP1;P1;durP2;ratioP2;P2;SDS_P1;SDS_P2;PMS_P1;PMS_P2;Temp;Humidity;BMP_temperature;BMP_pressure;BME280_temperature;BME280_humidity;BME280_pressure;Samples;Min_cycle;Max_cycle;Signal;HPM_P1;HPM_P2
2023/08/04 00:00:32;;;;;;;11.15;7.45;;;21.40;99.90;;;;;;5092747;28;20047;-77
2023/08/04 00:02:59;;;;;;;10.38;7.22;;;21.30;99.90;;;;;;5110413;28;20071;-77
2023/08/04 00:05:27;;;;;;;9.70;7.53;;;21.40;99.90;;;;;;5107806;28;20040;-77
2023/08/04 00:07:55;;;;;;;9.75;7.57;;;21.30;99.90;;;;;;5108947;28;20038;-77
2023/08/04 00:10:23;;;;;;;9.68;7.50;;;21.20;99.90;;;;;;5109056;28;20050;-77
2023/08/04 00:12:50;;;;;;;10.13;7.43;;;21.20;99.90;;;;;;5109396;28;20066;-76
2023/08/04 00:15:19;;;;;;;12.30;8.40;;;21.20;99.90;;;;;;5108360;28;20096;-78
2023/08/04 00:17:47;;;;;;;11.13;9.27;;;21.10;99.90;;;;;;5108131;28;20062;-79
2023/08/04 00:20:14;;;;;;;10.00;8.80;;;20.90;99.90;;;;;;5108684;28;20047;-77
2023/08/04 00:22:42;;;;;;;13.45;9.30;;;20.70;99.90;;;;;;5091254;28;20043;-76
2023/08/04 00:25:09;;;;;;;10.13;8.30;;;20.60;99.90;;;;;;5108215;28;20043;-77
2023/08/04 00:27:37;;;;;;;11.10;8.88;;;20.50;99.90;;;;;;5108559;28;20043;-76
2023/08/04 00:30:05;;;;;;;9.98;8.93;;;20.50;99.90;;;;;;5107561;28;20058;-76
2023/08/04 00:32:35;;;;;;;11.20;8.05;;;20.50;99.90;;;;;;5090757;28;20054;-78
2023/08/04 00:35:03;;;;;;;10.05;8.23;;;20.50;99.90;;;;;;5109139;28;20529;-78
2023/08/04 00:37:31;;;;;;;9.02;7.82;;;20.60;99.90;;;;;;5110048;28;20135;-78
2023/08/04 00:39:58;;;;;;;9.77;7.53;;;20.70;99.90;;;;;;5110071;28;20554;-75
2023/08/04 00:42:27;;;;;;;11.60;8.23;;;20.70;99.90;;;;;;5092018;28;20051;-75
2023/08/04 00:44:54;;;;;;;10.27;7.93;;;20.70;99.90;;;;;;5090688;28;20387;-78
2023/08/04 00:47:24;;;;;;;13.10;8.30;;;20.70;99.90;;;;;;5109266;28;20039;-77
2023/08/04 00:49:55;;;;;;;11.63;8.30;;;20.70;99.90;;;;;;5107102;28;20096;-78
2023/08/04 00:52:22;;;;;;;12.45;8.38;;;20.70;99.90;;;;;;5090886;28;20044;-75
2023/08/04 00:54:49;;;;;;;10.05;7.70;;;20.70;99.90;;;;;;5091132;28;20044;-77
2023/08/04 00:57:17;;;;;;;11.95;8.70;;;20.70;99.90;;;;;;5091683;28;20047;-78
2023/08/04 00:59:44;;;;;;;10.93;7.85;;;20.60;99.90;;;;;;5107777;28;20037;-76
2023/08/04 01:02:12;;;;;;;8.95;8.02;;;20.60;99.90;;;;;;5109144;28;20100;-77
2023/08/04 01:04:39;;;;;;;11.88;8.05;;;20.60;99.90;;;;;;5090777;28;20044;-74
2023/08/04 01:07:18;;;;;;;11.70;8.00;;;20.60;99.90;;;;;;5124309;28;20107;-77
2023/08/04 01:09:52;;;;;;;9.13;7.80;;;20.70;99.90;;;;;;5120299;28;20036;-74
2023/08/04 01:12:24;;;;;;;9.63;7.68;;;20.50;99.90;;;;;;5085461;28;20406;-76
2023/08/04 01:14:54;;;;;;;9.35;7.70;;;20.50;99.90;;;;;;5108816;28;20036;-76
2023/08/04 01:17:32;;;;;;;9.93;7.80;;;20.50;99.90;;;;;;5089848;28;20163;-78
2023/08/04 01:20:00;;;;;;;10.55;8.02;;;20.50;99.90;;;;;;5091180;28;20051;-76
2023/08/04 01:22:29;;;;;;;9.02;8.13;;;20.40;99.90;;;;;;5109295;28;20042;-77
2023/08/04 01:24:56;;;;;;;9.52;8.00;;;20.40;99.90;;;;;;5090972;28;20043;-76
2023/08/04 01:27:31;;;;;;;12.55;8.40;;;20.30;99.90;;;;;;5100145;28;20533;-78
2023/08/04 01:30:01;;;;;;;10.52;8.15;;;20.20;99.90;;;;;;5108869;28;20039;-77
2023/08/04 01:32:29;;;;;;;9.88;8.02;;;20.30;99.90;;;;;;5088301;28;20047;-77
2023/08/04 01:34:57;;;;;;;9.93;8.27;;;20.40;99.90;;;;;;5091748;28;20105;-75
2023/08/04 01:37:24;;;;;;;13.70;8.63;;;20.30;99.90;;;;;;5121154;28;20537;-75
2023/08/04 01:39:52;;;;;;;11.57;8.82;;;20.20;99.90;;;;;;5120699;28;20047;-78
2023/08/04 01:42:20;;;;;;;10.75;8.88;;;20.20;99.90;;;;;;5088666;28;20479;-77
2023/08/04 01:44:47;;;;;;;12.85;9.70;;;20.00;99.90;;;;;;5108118;28;20134;-77
2023/08/04 01:47:14;;;;;;;11.68;9.30;;;20.00;99.90;;;;;;5091431;28;20039;-75
2023/08/04 01:49:40;;;;;;;9.55;8.50;;;19.90;99.90;;;;;;5111084;28;20173;-78
2023/08/04 01:52:08;;;;;;;9.27;8.05;;;20.00;99.90;;;;;;5111910;28;20048;-77
2023/08/04 01:54:36;;;;;;;11.18;8.50;;;20.10;99.90;;;;;;5117966;28;20113;-77
2023/08/04 01:57:05;;;;;;;10.15;8.38;;;20.20;99.90;;;;;;5138200;28;20036;-75
2023/08/04 01:59:32;;;;;;;9.38;7.70;;;20.10;99.90;;;;;;5116078;28;20114;-76
2023/08/04 02:02:00;;;;;;;12.50;9.07;;;20.10;99.90;;;;;;5116208;28;20064;-77
2023/08/04 02:04:27;;;;;;;10.95;9.13;;;20.10;99.90;;;;;;5098573;28;20490;-77
2023/08/04 02:06:54;;;;;;;13.43;9.90;;;20.10;99.90;;;;;;5111097;28;20039;-75
2023/08/04 02:09:22;;;;;;;14.43;9.77;;;20.10;99.90;;;;;;5097139;28;20477;-75
2023/08/04 02:11:50;;;;;;;10.85;9.15;;;20.20;99.90;;;;;;5117060;28;20085;-76
2023/08/04 02:14:19;;;;;;;11.27;8.30;;;20.10;99.90;;;;;;5130307;28;20051;-76
2023/08/04 02:16:46;;;;;;;12.93;9.65;;;20.00;99.90;;;;;;5123161;28;20507;-74
2023/08/04 02:19:13;;;;;;;14.13;10.52;;;20.10;99.90;;;;;;5121188;28;20054;-76
2023/08/04 02:21:41;;;;;;;15.15;11.35;;;20.10;99.90;;;;;;5116776;28;20035;-77
2023/08/04 02:24:08;;;;;;;12.70;10.43;;;20.00;99.90;;;;;;5110381;28;20626;-77
2023/08/04 02:26:35;;;;;;;12.02;9.95;;;20.10;99.90;;;;;;5110542;28;20482;-76
2023/08/04 02:29:04;;;;;;;11.00;9.38;;;20.10;99.90;;;;;;5094687;28;20039;-77
2023/08/04 02:31:34;;;;;;;9.80;8.77;;;20.00;99.90;;;;;;5102999;28;20055;-78
2023/08/04 02:34:01;;;;;;;10.13;8.30;;;20.00;99.90;;;;;;5123885;28;20043;-76
2023/08/04 02:36:29;;;;;;;11.70;8.25;;;20.00;99.90;;;;;;5117907;28;20138;-76
2023/08/04 02:38:58;;;;;;;12.88;9.07;;;20.00;99.90;;;;;;5110470;28;20043;-77
2023/08/04 02:41:25;;;;;;;11.15;8.40;;;20.00;99.90;;;;;;5113118;28;20055;-73
2023/08/04 02:43:53;;;;;;;10.32;8.63;;;19.90;99.90;;;;;;5112867;28;20517;-76
2023/08/04 02:46:22;;;;;;;10.90;9.00;;;20.00;99.90;;;;;;5113533;28;20051;-75
2023/08/04 02:48:51;;;;;;;11.23;9.20;;;19.90;99.90;;;;;;5113723;28;20487;-74
2023/08/04 02:51:18;;;;;;;11.88;8.38;;;20.00;99.90;;;;;;5112085;28;20088;-75
2023/08/04 02:53:47;;;;;;;13.23;9.63;;;19.90;99.90;;;;;;5094286;28;20108;-74
2023/08/04 02:56:16;;;;;;;13.93;9.25;;;19.80;99.90;;;;;;5096323;28;20089;-74
2023/08/04 02:58:44;;;;;;;9.60;8.60;;;19.80;99.90;;;;;;5113637;28;20039;-75
2023/08/04 03:01:12;;;;;;;11.07;9.32;;;19.80;99.90;;;;;;5112785;28;20105;-76
2023/08/04 03:03:41;;;;;;;11.32;8.75;;;19.70;99.90;;;;;;5099591;28;20047;-73
2023/08/04 03:06:10;;;;;;;14.45;9.00;;;19.70;99.90;;;;;;5120771;28;20043;-77
2023/08/04 03:08:37;;;;;;;11.43;9.10;;;19.60;99.90;;;;;;5111338;28;20074;-77
2023/08/04 03:11:10;;;;;;;13.48;9.20;;;19.60;99.90;;;;;;5110387;28;20541;-77
2023/08/04 03:13:37;;;;;;;11.63;8.77;;;19.60;99.90;;;;;;5092795;28;20469;-76
2023/08/04 03:16:05;;;;;;;15.00;9.43;;;19.60;99.90;;;;;;5092720;28;20047;-77
2023/08/04 03:18:32;;;;;;;11.40;8.68;;;19.60;99.90;;;;;;5110099;28;20536;-78
2023/08/04 03:21:03;;;;;;;12.90;8.88;;;19.60;99.90;;;;;;5109993;28;20044;-80
2023/08/04 03:23:32;;;;;;;13.65;9.07;;;19.70;99.90;;;;;;5116817;28;20070;-75
2023/08/04 03:25:59;;;;;;;9.80;8.60;;;19.60;99.90;;;;;;5122903;28;20046;-75
2023/08/04 03:28:26;;;;;;;9.82;8.65;;;19.50;99.90;;;;;;5117765;28;20519;-75
2023/08/04 03:30:54;;;;;;;10.45;8.85;;;19.60;99.90;;;;;;5111276;28;20055;-78
2023/08/04 03:33:21;;;;;;;10.40;8.23;;;19.50;99.90;;;;;;5110486;27;20109;-76
2023/08/04 03:35:48;;;;;;;11.10;8.65;;;19.70;99.90;;;;;;5109716;28;20043;-78
2023/08/04 03:38:16;;;;;;;10.30;8.20;;;19.60;99.90;;;;;;5110902;28;20036;-78
2023/08/04 03:40:44;;;;;;;10.82;8.98;;;19.60;99.90;;;;;;5097141;28;20059;-76
2023/08/04 03:43:12;;;;;;;12.32;8.30;;;19.60;99.90;;;;;;5115841;28;20055;-77
2023/08/04 03:45:39;;;;;;;14.38;8.95;;;19.50;99.90;;;;;;5111324;28;20428;-76
2023/08/04 03:48:06;;;;;;;9.52;8.05;;;19.70;99.90;;;;;;5110441;28;20048;-76
2023/08/04 03:50:34;;;;;;;12.95;9.43;;;19.60;99.90;;;;;;5110473;27;20123;-77
2023/08/04 03:53:03;;;;;;;10.77;8.43;;;19.50;99.90;;;;;;5094105;28;20134;-75
2023/08/04 03:55:30;;;;;;;10.02;8.00;;;19.60;99.90;;;;;;5110876;27;20046;-76
2023/08/04 03:57:59;;;;;;;10.85;8.68;;;19.60;99.90;;;;;;5108969;28;20118;-76
2023/08/04 04:00:27;;;;;;;11.63;8.77;;;19.60;99.90;;;;;;5110191;28;20093;-76
2023/08/04 04:02:54;;;;;;;11.85;8.57;;;19.70;99.90;;;;;;5108732;28;20047;-77
2023/08/04 04:05:22;;;;;;;11.60;8.75;;;19.80;99.90;;;;;;5109960;28;20453;-77
2023/08/04 04:07:49;;;;;;;13.43;8.20;;;19.90;99.90;;;;;;5092186;28;20043;-77
2023/08/04 04:10:17;;;;;;;15.40;8.52;;;20.10;99.90;;;;;;5109698;28;20047;-77
2023/08/04 04:12:45;;;;;;;12.02;8.40;;;20.30;99.90;;;;;;5109873;28;20058;-78
2023/08/04 04:15:14;;;;;;;14.52;8.85;;;20.70;99.90;;;;;;5109263;28;20040;-78
2023/08/04 04:17:41;;;;;;;12.63;8.13;;;21.10;99.90;;;;;;5109204;28;20058;-77
2023/08/04 04:20:09;;;;;;;14.57;8.93;;;21.50;99.90;;;;;;5109985;28;20089;-77
2023/08/04 04:22:36;;;;;;;12.63;8.32;;;21.80;99.90;;;;;;5109531;28;20039;-77
2023/08/04 04:25:04;;;;;;;10.20;8.00;;;22.30;99.90;;;;;;5109579;28;20096;-78
2023/08/04 04:27:32;;;;;;;9.27;8.25;;;22.60;99.90;;;;;;5110110;28;20036;-79
2023/08/04 04:29:59;;;;;;;8.60;6.93;;;22.80;99.90;;;;;;5092910;28;20406;-74
2023/08/04 04:32:28;;;;;;;8.75;6.97;;;23.30;99.90;;;;;;5103171;28;20560;-77
2023/08/04 04:34:55;;;;;;;7.18;6.32;;;23.80;99.90;;;;;;5108545;28;20434;-78
2023/08/04 04:37:22;;;;;;;7.68;6.20;;;24.20;99.90;;;;;;5109463;28;20051;-75
2023/08/04 04:39:50;;;;;;;8.60;6.63;;;24.40;99.90;;;;;;5108952;28;20548;-74
2023/08/04 04:42:17;;;;;;;9.82;6.80;;;24.70;99.90;;;;;;5110262;28;20032;-78
2023/08/04 04:44:45;;;;;;;9.93;6.65;;;24.90;99.90;;;;;;5091054;28;20074;-77
2023/08/04 04:47:12;;;;;;;9.35;6.63;;;25.10;99.90;;;;;;5108894;28;20064;-78
2023/08/04 04:49:41;;;;;;;14.10;6.85;;;25.40;99.90;;;;;;5090870;28;20051;-76
2023/08/04 04:52:15;;;;;;;14.98;6.32;;;25.60;99.90;;;;;;5109687;28;20051;-78
2023/08/04 04:54:42;;;;;;;9.55;6.63;;;25.40;99.90;;;;;;5093118;28;20124;-75
2023/08/04 04:57:10;;;;;;;9.30;6.43;;;25.10;99.90;;;;;;5109311;28;20109;-75
2023/08/04 04:59:37;;;;;;;9.70;6.43;;;24.70;99.90;;;;;;5111981;28;20527;-77
2023/08/04 05:02:05;;;;;;;10.73;6.65;;;24.50;99.90;;;;;;5112143;28;20044;-75
2023/08/04 05:04:32;;;;;;;9.95;6.95;;;24.50;99.90;;;;;;5091909;28;20032;-74
2023/08/04 05:07:01;;;;;;;15.27;7.07;;;24.40;99.90;;;;;;5111931;28;20584;-74
2023/08/04 05:09:28;;;;;;;9.50;6.93;;;24.40;99.90;;;;;;5133871;28;20019;-77
2023/08/04 05:11:55;;;;;;;12.55;7.32;;;24.40;99.90;;;;;;5133534;28;20058;-74
2023/08/04 05:14:23;;;;;;;8.52;6.70;;;24.40;99.90;;;;;;5131545;28;20047;-75
2023/08/04 05:16:50;;;;;;;13.40;7.50;;;24.40;99.90;;;;;;5115601;28;20039;-77
2023/08/04 05:19:17;;;;;;;15.00;8.60;;;24.40;99.90;;;;;;5093033;28;20039;-77
2023/08/04 05:21:45;;;;;;;9.80;7.20;;;24.50;99.90;;;;;;5112790;28;20035;-76
2023/08/04 05:24:15;;;;;;;11.65;7.53;;;24.80;99.90;;;;;;5110402;28;20558;-78
2023/08/04 05:26:43;;;;;;;13.45;7.93;;;25.30;99.90;;;;;;5107792;28;20069;-77
2023/08/04 05:29:10;;;;;;;12.23;7.60;;;25.90;99.90;;;;;;5089665;28;20061;-75
2023/08/04 05:31:37;;;;;;;11.00;7.35;;;26.40;99.90;;;;;;5109131;28;20138;-75
2023/08/04 05:34:04;;;;;;;9.60;8.60;;;26.70;99.90;;;;;;5107578;28;20608;-79
2023/08/04 05:36:32;;;;;;;10.63;6.68;;;27.00;99.90;;;;;;5108603;28;20106;-76
2023/08/04 05:38:59;;;;;;;14.95;8.48;;;27.50;99.90;;;;;;5108338;28;20380;-76
2023/08/04 05:41:28;;;;;;;8.30;5.70;;;27.70;99.90;;;;;;5107643;28;20039;-77
2023/08/04 05:43:55;;;;;;;8.88;6.45;;;27.80;99.90;;;;;;5125596;28;20043;-75
2023/08/04 05:46:23;;;;;;;11.65;6.72;;;27.60;99.90;;;;;;5125371;28;20051;-75
2023/08/04 05:48:50;;;;;;;9.05;7.38;;;27.70;99.90;;;;;;5128106;28;20074;-75
2023/08/04 05:51:17;;;;;;;8.40;6.03;;;27.80;99.90;;;;;;5130141;28;20086;-78
2023/08/04 05:53:45;;;;;;;10.43;7.90;;;28.10;99.90;;;;;;5113591;28;20048;-76
2023/08/04 05:56:12;;;;;;;8.02;6.03;;;28.30;99.90;;;;;;5107941;28;20491;-77
2023/08/04 05:58:41;;;;;;;9.75;6.45;;;28.60;99.90;;;;;;5109351;28;20044;-75
2023/08/04 06:01:08;;;;;;;11.52;8.20;;;28.80;99.90;;;;;;5111909;28;20054;-78
2023/08/04 06:03:36;;;;;;;9.77;7.10;;;28.90;99.90;;;;;;5110096;28;20548;-76
2023/08/04 06:06:04;;;;;;;9.80;6.45;;;29.00;99.90;;;;;;5107296;28;20046;-77
2023/08/04 06:08:33;;;;;;;8.70;6.53;;;28.90;99.90;;;;;;5109338;28;20043;-77
2023/08/04 06:11:01;;;;;;;11.55;6.80;;;28.90;99.90;;;;;;5107914;28;20392;-77
2023/08/04 06:13:28;;;;;;;8.38;6.05;;;28.90;99.90;;;;;;5107142;28;20043;-76
2023/08/04 06:15:57;;;;;;;11.07;6.88;;;28.90;99.90;;;;;;5107373;28;20043;-76
2023/08/04 06:18:24;;;;;;;9.75;6.65;;;28.90;99.90;;;;;;5108091;28;20093;-77
2023/08/04 06:20:52;;;;;;;9.20;5.80;;;29.00;99.90;;;;;;5108328;28;20145;-77
2023/08/04 06:23:19;;;;;;;13.38;6.45;;;28.80;99.90;;;;;;5107779;28;20036;-77
2023/08/04 06:25:47;;;;;;;9.98;7.22;;;28.70;99.90;;;;;;5108830;28;20047;-76
2023/08/04 06:28:14;;;;;;;10.35;6.63;;;28.70;99.90;;;;;;5088594;28;20062;-76
2023/08/04 06:30:41;;;;;;;11.52;7.13;;;29.00;99.90;;;;;;5114457;28;20058;-78
2023/08/04 06:33:10;;;;;;;11.10;7.60;;;29.10;99.90;;;;;;5130042;28;20040;-77
2023/08/04 06:35:41;;;;;;;17.73;8.80;;;29.20;99.90;;;;;;5129421;28;20103;-77
2023/08/04 06:38:08;;;;;;;12.82;7.28;;;29.30;99.90;;;;;;5123518;28;20064;-76
2023/08/04 06:40:35;;;;;;;14.65;8.52;;;29.40;99.90;;;;;;5108045;28;20130;-77
2023/08/04 06:43:03;;;;;;;16.48;9.10;;;29.40;99.90;;;;;;5111869;28;20039;-75
2023/08/04 06:45:30;;;;;;;11.88;7.47;;;29.20;99.90;;;;;;5113284;28;20035;-75
2023/08/04 06:47:57;;;;;;;17.48;7.97;;;29.40;99.90;;;;;;5113115;28;20502;-78
2023/08/04 06:50:26;;;;;;;16.52;10.02;;;29.70;99.90;;;;;;5115776;28;20063;-75
2023/08/04 06:52:54;;;;;;;20.70;13.38;;;29.90;99.90;;;;;;5114622;28;20032;-75
2023/08/04 06:55:22;;;;;;;16.30;13.02;;;30.00;99.90;;;;;;5111787;28;20039;-76
2023/08/04 06:57:49;;;;;;;14.85;9.65;;;30.10;99.90;;;;;;5114797;28;20044;-75
2023/08/04 07:00:18;;;;;;;18.30;10.10;;;29.90;99.90;;;;;;5094960;28;20105;-76
2023/08/04 07:02:47;;;;;;;19.27;9.13;;;29.90;99.90;;;;;;5091676;28;20032;-78
2023/08/04 07:05:15;;;;;;;12.05;8.77;;;29.90;99.90;;;;;;5091209;28;20549;-78
2023/08/04 07:07:46;;;;;;;24.67;13.65;;;30.00;99.90;;;;;;5091986;28;20044;-78
2023/08/04 07:10:14;;;;;;;20.88;14.57;;;30.10;99.90;;;;;;5090985;28;20055;-77
2023/08/04 07:12:41;;;;;;;13.85;10.38;;;30.40;99.90;;;;;;5072981;28;20078;-77
2023/08/04 07:15:09;;;;;;;16.38;9.40;;;30.60;99.90;;;;;;5090883;28;20040;-75
2023/08/04 07:17:37;;;;;;;12.70;7.68;;;30.80;99.90;;;;;;5092490;28;20066;-75
2023/08/04 07:20:05;;;;;;;10.98;7.97;;;30.90;99.90;;;;;;5093841;28;20028;-76
2023/08/04 07:22:33;;;;;;;8.93;6.50;;;31.10;99.90;;;;;;5091715;28;20446;-78
2023/08/04 07:25:01;;;;;;;11.52;7.63;;;31.20;99.90;;;;;;5090278;28;20032;-76
2023/08/04 07:27:29;;;;;;;12.38;8.63;;;31.10;99.90;;;;;;5092191;28;20052;-76
2023/08/04 07:29:56;;;;;;;15.20;8.32;;;31.10;99.90;;;;;;5093057;28;20109;-76
2023/08/04 07:32:23;;;;;;;13.52;8.38;;;31.20;99.90;;;;;;5092556;28;20048;-76
2023/08/04 07:34:52;;;;;;;10.80;8.27;;;31.30;99.90;;;;;;5058646;28;20123;-77
2023/08/04 07:37:20;;;;;;;15.13;9.52;;;31.30;99.90;;;;;;5082676;28;20146;-76
2023/08/04 07:39:49;;;;;;;14.57;8.27;;;31.40;99.90;;;;;;5097069;28;20549;-76
2023/08/04 07:42:25;;;;;;;10.48;7.43;;;31.40;99.90;;;;;;5099351;28;20040;-76
2023/08/04 07:44:53;;;;;;;11.30;6.45;;;31.40;99.90;;;;;;5096467;28;20070;-77
2023/08/04 07:47:26;;;;;;;11.63;7.53;;;31.40;99.90;;;;;;5106753;28;20043;-78
2023/08/04 07:49:53;;;;;;;12.63;6.65;;;31.40;99.90;;;;;;5094690;28;20550;-76
2023/08/04 07:52:21;;;;;;;8.30;6.18;;;31.40;99.90;;;;;;5086590;28;20499;-78
2023/08/04 07:54:48;;;;;;;9.50;6.22;;;31.50;99.90;;;;;;5084119;28;20068;-81
2023/08/04 07:57:15;;;;;;;12.18;8.00;;;31.50;99.90;;;;;;5094032;28;20467;-75
2023/08/04 07:59:44;;;;;;;11.73;6.70;;;31.60;99.90;;;;;;5093927;28;20036;-75
2023/08/04 08:02:14;;;;;;;13.60;6.55;;;31.60;99.90;;;;;;5114607;28;20054;-77
2023/08/04 08:04:43;;;;;;;14.48;6.93;;;31.50;99.90;;;;;;5109645;28;20039;-75
2023/08/04 08:07:11;;;;;;;12.85;7.10;;;31.60;99.90;;;;;;5112250;28;20081;-77
2023/08/04 08:09:38;;;;;;;10.00;6.78;;;31.50;99.90;;;;;;5112791;28;20040;-77
2023/08/04 08:12:06;;;;;;;9.35;7.10;;;31.40;99.90;;;;;;5112384;28;20068;-75
2023/08/04 08:14:38;;;;;;;9.77;6.28;;;31.50;99.90;;;;;;5091289;28;20495;-79
2023/08/04 08:17:07;;;;;;;8.50;5.80;;;31.60;99.90;;;;;;5112031;28;20114;-75
2023/08/04 08:19:34;;;;;;;9.50;6.53;;;31.70;99.90;;;;;;5113748;28;20039;-77
2023/08/04 08:22:01;;;;;;;13.57;7.47;;;31.80;99.90;;;;;;5112726;28;20077;-75
2023/08/04 08:24:29;;;;;;;11.98;6.95;;;32.00;99.90;;;;;;5118383;28;20020;-77
2023/08/04 08:26:56;;;;;;;13.85;9.68;;;32.20;99.90;;;;;;5133207;28;20036;-77
2023/08/04 08:29:23;;;;;;;10.95;7.75;;;32.30;99.90;;;;;;5132453;28;20158;-78
2023/08/04 08:31:50;;;;;;;10.82;7.82;;;32.40;99.90;;;;;;5129805;28;20039;-78
2023/08/04 08:34:19;;;;;;;11.43;8.10;;;32.50;99.90;;;;;;5111326;28;20044;-78
2023/08/04 08:36:47;;;;;;;11.25;6.25;;;32.50;99.90;;;;;;5111533;28;20048;-77
2023/08/04 08:39:15;;;;;;;8.25;6.78;;;32.70;99.90;;;;;;5115259;28;20437;-79
2023/08/04 08:41:42;;;;;;;10.68;7.60;;;32.70;99.90;;;;;;5100235;28;20040;-78
2023/08/04 08:44:10;;;;;;;12.60;7.55;;;32.80;99.90;;;;;;5102060;28;20556;-76
2023/08/04 08:46:38;;;;;;;12.23;7.22;;;32.90;99.90;;;;;;5118357;28;20115;-79
2023/08/04 08:49:06;;;;;;;12.52;7.10;;;32.90;99.90;;;;;;5090944;28;20440;-77
2023/08/04 08:51:41;;;;;;;9.70;5.97;;;32.90;99.90;;;;;;5110268;28;20122;-77
2023/08/04 08:54:10;;;;;;;8.70;5.78;;;32.90;99.90;;;;;;5109998;28;20046;-77
2023/08/04 08:56:38;;;;;;;8.85;6.15;;;32.90;99.90;;;;;;5109976;28;20441;-77
2023/08/04 08:59:08;;;;;;;11.35;6.95;;;32.90;99.90;;;;;;5116595;28;20133;-77
2023/08/04 09:01:38;;;;;;;11.02;6.93;;;32.90;99.90;;;;;;5093249;28;20048;-78
2023/08/04 09:04:07;;;;;;;8.13;6.07;;;33.00;99.90;;;;;;5095540;28;20036;-77
2023/08/04 09:06:36;;;;;;;7.25;4.78;;;33.10;99.90;;;;;;5089237;28;20039;-77
2023/08/04 09:09:05;;;;;;;8.60;5.13;;;33.20;99.90;;;;;;5091919;28;20063;-78
2023/08/04 09:11:32;;;;;;;8.73;4.80;;;33.20;99.90;;;;;;5090995;28;20101;-77
2023/08/04 09:14:02;;;;;;;6.82;4.50;;;33.30;99.90;;;;;;5096361;28;20032;-79
2023/08/04 09:16:36;;;;;;;6.93;5.00;;;33.30;99.90;;;;;;5090760;28;20130;-78
2023/08/04 09:19:07;;;;;;;6.28;4.65;;;33.40;99.90;;;;;;5088169;28;20615;-78
2023/08/04 09:21:36;;;;;;;7.13;4.65;;;33.40;99.90;;;;;;5072708;28;20071;-79
2023/08/04 09:24:09;;;;;;;7.45;6.20;;;33.30;99.90;;;;;;5094859;28;20047;-77
2023/08/04 09:26:46;;;;;;;7.68;4.55;;;33.40;99.90;;;;;;5092635;28;20044;-78
2023/08/04 09:29:15;;;;;;;10.32;4.93;;;33.10;99.90;;;;;;5090156;28;20503;-77
2023/08/04 09:31:51;;;;;;;8.98;6.68;;;33.30;99.90;;;;;;5072528;28;20048;-77
2023/08/04 09:34:19;;;;;;;8.25;4.20;;;33.60;99.90;;;;;;5089917;28;20097;-78
2023/08/04 09:36:50;;;;;;;7.97;5.90;;;33.50;99.90;;;;;;5092232;28;20442;-80
2023/08/04 09:39:18;;;;;;;7.50;4.22;;;33.50;99.90;;;;;;5089858;28;20051;-77
2023/08/04 09:41:47;;;;;;;6.07;4.20;;;33.30;99.90;;;;;;5093486;28;20063;-78
2023/08/04 09:44:14;;;;;;;9.35;6.78;;;33.30;99.90;;;;;;5093742;28;20045;-78
2023/08/04 09:46:49;;;;;;;9.15;7.18;;;33.50;99.90;;;;;;5092433;28;20090;-77
2023/08/04 09:49:18;;;;;;;10.30;4.57;;;33.80;99.90;;;;;;5094981;28;20063;-76
2023/08/04 09:51:46;;;;;;;7.45;5.30;;;34.00;99.90;;;;;;5094801;28;20032;-78
2023/08/04 09:54:19;;;;;;;9.07;5.35;;;34.00;99.90;;;;;;5092757;28;20050;-78
2023/08/04 09:56:50;;;;;;;6.63;5.43;;;33.80;99.90;;;;;;5081555;28;20062;-77
2023/08/04 09:59:27;;;;;;;5.63;4.47;;;34.00;99.90;;;;;;5090713;28;20097;-77
2023/08/04 10:02:00;;;;;;;6.70;4.90;;;34.10;99.90;;;;;;5112747;28;20040;-78
2023/08/04 10:04:28;;;;;;;9.00;6.18;;;34.20;99.90;;;;;;5111395;28;20035;-79
2023/08/04 10:06:58;;;;;;;6.05;4.95;;;34.20;99.90;;;;;;5110241;28;20457;-77
2023/08/04 10:09:31;;;;;;;10.32;5.80;;;34.20;99.90;;;;;;5110189;28;20605;-78
2023/08/04 10:12:01;;;;;;;9.88;5.50;;;34.20;99.90;;;;;;5112737;28;20394;-79
2023/08/04 10:14:33;;;;;;;7.40;5.72;;;34.30;99.90;;;;;;5111512;28;20064;-77
2023/08/04 10:17:01;;;;;;;10.65;5.10;;;34.30;99.90;;;;;;5114201;28;20437;-77
2023/08/04 10:19:29;;;;;;;10.05;6.07;;;34.20;99.90;;;;;;5116542;27;20039;-78
2023/08/04 10:22:05;;;;;;;11.88;7.63;;;34.20;99.90;;;;;;5117352;28;20521;-79
2023/08/04 10:24:37;;;;;;;8.45;6.13;;;34.20;99.90;;;;;;5121321;28;20043;-75
2023/08/04 10:27:18;;;;;;;8.95;5.82;;;34.00;99.90;;;;;;5125867;28;20044;-78
2023/08/04 10:29:46;;;;;;;9.45;6.22;;;33.50;99.90;;;;;;5127265;28;20051;-76
2023/08/04 10:32:13;;;;;;;9.13;6.38;;;33.10;99.90;;;;;;5116260;28;20040;-77
2023/08/04 10:34:43;;;;;;;8.55;6.80;;;33.10;99.90;;;;;;5116888;28;20043;-76
2023/08/04 10:37:16;;;;;;;11.18;6.90;;;32.90;99.90;;;;;;5115594;28;20119;-81
2023/08/04 10:39:46;;;;;;;8.25;7.18;;;32.70;99.90;;;;;;5113902;28;20043;-79
2023/08/04 10:42:22;;;;;;;10.18;7.47;;;32.60;99.90;;;;;;5114000;28;20081;-77
2023/08/04 10:44:54;;;;;;;9.60;7.40;;;32.70;99.90;;;;;;5127793;28;20091;-78
2023/08/04 10:47:41;;;;;;;9.27;7.40;;;33.00;99.90;;;;;;5135342;28;20043;-79
2023/08/04 10:50:09;;;;;;;9.35;7.30;;;33.10;99.90;;;;;;5119771;28;20043;-78
2023/08/04 10:52:39;;;;;;;8.57;7.40;;;32.90;99.90;;;;;;5116645;28;20040;-79
2023/08/04 10:55:11;;;;;;;11.27;7.10;;;33.00;99.90;;;;;;5111790;28;20486;-79
2023/08/04 10:57:39;;;;;;;12.82;7.07;;;33.10;99.90;;;;;;5117334;28;20058;-77
2023/08/04 11:00:09;;;;;;;10.85;7.38;;;33.30;99.90;;;;;;5126073;28;20073;-77
2023/08/04 11:02:37;;;;;;;8.00;6.78;;;33.00;99.90;;;;;;5120717;28;20503;-77
2023/08/04 11:05:08;;;;;;;11.38;7.65;;;32.70;99.90;;;;;;5116084;27;20051;-81
2023/08/04 11:07:36;;;;;;;8.77;7.60;;;32.80;99.90;;;;;;5120960;28;20043;-79
2023/08/04 11:10:05;;;;;;;11.52;7.30;;;32.90;99.90;;;;;;5124648;27;20069;-78
2023/08/04 11:12:36;;;;;;;11.20;7.47;;;32.90;99.90;;;;;;5125533;28;20070;-78
2023/08/04 11:15:05;;;;;;;11.00;7.70;;;32.90;99.90;;;;;;5113726;28;20058;-78
2023/08/04 11:17:33;;;;;;;11.18;8.05;;;33.00;99.90;;;;;;5113262;28;20043;-78
2023/08/04 11:20:02;;;;;;;8.88;7.78;;;33.10;99.90;;;;;;5112363;28;20036;-76
2023/08/04 11:22:29;;;;;;;11.45;7.28;;;32.70;99.90;;;;;;5114306;28;20533;-78
2023/08/04 11:25:00;;;;;;;9.43;7.63;;;32.80;99.90;;;;;;5112524;28;20077;-78
2023/08/04 11:27:27;;;;;;;10.13;7.43;;;32.80;99.90;;;;;;5113674;28;20122;-79
2023/08/04 11:29:56;;;;;;;11.10;7.53;;;32.80;99.90;;;;;;5112068;28;20066;-78
2023/08/04 11:32:28;;;;;;;9.23;7.28;;;33.10;99.90;;;;;;5113470;28;20048;-77
2023/08/04 11:34:56;;;;;;;11.15;7.88;;;32.70;99.90;;;;;;5113357;28;20513;-77
2023/08/04 11:37:26;;;;;;;10.23;7.63;;;32.60;99.90;;;;;;5110416;28;20131;-76
2023/08/04 11:39:54;;;;;;;9.48;6.72;;;32.70;99.90;;;;;;5119620;28;20043;-76
2023/08/04 11:42:23;;;;;;;11.98;8.65;;;32.70;99.90;;;;;;5115841;28;20482;-78
2023/08/04 11:44:51;;;;;;;11.32;8.45;;;32.50;99.90;;;;;;5134763;28;20096;-78
2023/08/04 11:47:20;;;;;;;9.98;7.60;;;32.70;99.90;;;;;;5135406;28;20031;-78
2023/08/04 11:49:48;;;;;;;18.50;8.77;;;32.70;99.90;;;;;;5133716;28;20096;-77
2023/08/04 11:52:16;;;;;;;8.35;7.55;;;32.60;99.90;;;;;;5131732;28;20039;-78
2023/08/04 11:54:53;;;;;;;11.73;8.05;;;32.70;99.90;;;;;;5116435;28;20490;-78
2023/08/04 11:57:20;;;;;;;9.50;7.30;;;32.70;99.90;;;;;;5115927;28;20059;-76
2023/08/04 12:00:11;;;;;;;9.40;6.57;;;32.70;99.90;;;;;;5116057;28;20491;-76
2023/08/04 12:05:47;;;;;;;9.05;6.90;;;32.70;99.90;;;;;;5067386;27;20387;-77
2023/08/04 12:08:15;;;;;;;11.13;7.82;;;32.70;99.90;;;;;;5044181;28;20132;-76
2023/08/04 12:10:43;;;;;;;9.77;7.28;;;32.60;99.90;;;;;;5046459;28;20037;-79
2023/08/04 12:13:35;;;;;;;11.40;7.30;;;32.60;99.90;;;;;;5049994;28;20065;-77
2023/08/04 12:16:04;;;;;;;11.35;8.57;;;32.50;99.90;;;;;;5043481;28;20087;-79
2023/08/04 12:18:33;;;;;;;12.50;7.70;;;32.70;99.90;;;;;;5040057;28;20119;-79
2023/08/04 12:21:02;;;;;;;8.50;7.57;;;32.70;99.90;;;;;;5040844;28;20112;-78
2023/08/04 12:23:29;;;;;;;11.02;7.75;;;32.50;99.90;;;;;;5041968;28;20345;-77
2023/08/04 12:25:56;;;;;;;11.77;8.30;;;32.50;99.90;;;;;;5044576;28;20045;-77
2023/08/04 12:28:24;;;;;;;12.40;7.47;;;32.70;99.90;;;;;;5043002;28;20404;-78
2023/08/04 12:30:51;;;;;;;12.68;8.10;;;32.40;99.90;;;;;;5043539;28;20053;-78
2023/08/04 12:33:19;;;;;;;12.00;8.00;;;32.50;99.90;;;;;;5045283;28;20037;-77
2023/08/04 12:35:46;;;;;;;9.48;7.18;;;32.40;99.90;;;;;;5042375;28;20042;-76
2023/08/04 12:38:16;;;;;;;12.32;7.68;;;32.20;99.90;;;;;;5044089;28;20473;-77
2023/08/04 12:40:45;;;;;;;14.95;7.65;;;32.40;99.90;;;;;;5043916;28;20045;-77
2023/08/04 12:43:22;;;;;;;11.05;7.72;;;32.40;99.90;;;;;;5041110;28;20227;-79
2023/08/04 12:45:49;;;;;;;8.65;7.80;;;32.50;99.90;;;;;;5045649;28;20073;-78
2023/08/04 12:48:18;;;;;;;11.27;7.82;;;32.50;99.90;;;;;;5042763;28;20045;-78
2023/08/04 12:50:46;;;;;;;13.50;7.50;;;32.70;99.90;;;;;;5044782;28;20049;-78